Oaktown, Indiana
Current Conditions -  °F | °C
As of 5:53 AM on Friday 24 Oct 2014 (Local Time) from KLWV Reporting Station
Overcast Overcast  
Wind Chill: 11°   Ceiling: 3600
Heat Index: 11°   Visibility: 7mi
Dew Point:   Wind: 3mph
Humidity: 89%   Direction: 160°SSE
Pressure: 30.12"   Gusts: NA
Location:  38.87°N, 87.44°W
Report Text: KLWV 241053Z AUTO 16003KT 7SM OVC036 11/09 A3012 RMK AO2 SLP198 T01060089
Loading
Personal Weather Stations






























Interactive Weather Map
Tropical Storm Tracking
New forecast layout! Learn more

10-Day Weather Forecast

Advertisements
Track Severe Weather on mobile